Time;durP1;ratioP1;P1;durP2;ratioP2;P2;SDS_P1;SDS_P2;PMS_P1;PMS_P2;Temp;Humidity;BMP_temperature;BMP_pressure;BME280_temperature;BME280_humidity;BME280_pressure;Samples;Min_cycle;Max_cycle;Signal;HPM_P1;HPM_P2
2022/05/21 00:01:36;;;;;;;9.70;4.53;;;12.70;99.90;;;;;;5028410;28;20072;-66
2022/05/21 00:04:02;;;;;;;10.88;4.88;;;12.70;99.90;;;;;;5028626;28;20451;-70
2022/05/21 00:06:27;;;;;;;8.57;4.38;;;12.80;99.90;;;;;;5025619;28;20041;-67
2022/05/21 00:08:53;;;;;;;9.35;4.70;;;12.80;99.90;;;;;;5028339;28;20049;-68
2022/05/21 00:11:18;;;;;;;8.18;4.07;;;12.80;99.90;;;;;;5027907;28;20121;-67
2022/05/21 00:13:45;;;;;;;9.07;4.10;;;12.80;99.90;;;;;;5028324;28;20041;-66
2022/05/21 00:16:11;;;;;;;10.48;4.13;;;12.80;99.90;;;;;;5028770;28;20099;-67
2022/05/21 00:18:37;;;;;;;10.68;3.80;;;12.70;99.90;;;;;;5020707;28;20034;-67
2022/05/21 00:21:03;;;;;;;8.55;3.65;;;12.70;99.90;;;;;;5028665;28;20125;-67
2022/05/21 00:23:31;;;;;;;12.20;3.72;;;12.70;99.90;;;;;;5027388;28;20551;-67
2022/05/21 00:26:00;;;;;;;13.60;3.72;;;12.70;99.90;;;;;;5027127;28;20050;-67
2022/05/21 00:28:27;;;;;;;12.43;3.55;;;12.70;99.90;;;;;;5030848;28;20037;-68
2022/05/21 00:30:53;;;;;;;12.07;4.78;;;12.80;99.90;;;;;;5033745;28;20511;-67
2022/05/21 00:33:19;;;;;;;11.60;3.42;;;12.70;99.90;;;;;;5028926;28;20087;-66
2022/05/21 00:35:48;;;;;;;10.80;4.03;;;12.70;99.90;;;;;;5030823;28;20045;-67
2022/05/21 00:38:14;;;;;;;13.80;4.07;;;12.80;99.90;;;;;;5030365;28;20030;-66
2022/05/21 00:40:40;;;;;;;8.73;3.55;;;12.70;99.90;;;;;;5027561;28;20026;-66
2022/05/21 00:43:07;;;;;;;10.63;3.40;;;12.70;99.90;;;;;;5021105;28;20036;-67
2022/05/21 00:45:33;;;;;;;8.25;3.20;;;12.80;99.90;;;;;;5025897;28;20397;-66
2022/05/21 00:47:59;;;;;;;13.02;3.30;;;12.80;99.90;;;;;;5027700;28;20029;-66
2022/05/21 00:50:29;;;;;;;9.88;3.65;;;12.80;99.90;;;;;;5027791;28;20057;-67
2022/05/21 00:52:55;;;;;;;11.13;3.47;;;12.80;99.90;;;;;;5028362;28;20040;-67
2022/05/21 00:55:27;;;;;;;10.63;3.13;;;12.80;99.90;;;;;;5027613;28;20025;-69
2022/05/21 01:00:49;;;;;;;11.80;3.20;;;12.80;99.90;;;;;;5023527;28;20037;-67
2022/05/21 01:03:15;;;;;;;7.80;3.20;;;12.80;99.90;;;;;;5027431;28;20033;-68
2022/05/21 01:05:44;;;;;;;11.13;3.55;;;12.90;99.90;;;;;;5023677;28;20375;-67
2022/05/21 01:08:10;;;;;;;10.00;3.80;;;12.90;99.90;;;;;;5024179;28;20116;-66
2022/05/21 01:10:43;;;;;;;13.73;3.88;;;12.90;99.90;;;;;;5027614;28;20124;-69
2022/05/21 01:13:13;;;;;;;13.70;4.85;;;12.90;99.90;;;;;;5020367;28;20053;-67
2022/05/21 01:15:46;;;;;;;17.65;4.18;;;12.90;99.90;;;;;;5028201;28;20113;-68
2022/05/21 01:18:12;;;;;;;11.90;3.88;;;12.90;99.90;;;;;;5027453;28;20268;-66
2022/05/21 01:20:46;;;;;;;9.63;4.40;;;13.00;99.90;;;;;;5027660;28;20042;-67
2022/05/21 01:23:14;;;;;;;7.95;3.65;;;13.00;99.90;;;;;;5026714;28;20037;-67
2022/05/21 01:25:41;;;;;;;11.27;3.70;;;13.00;99.90;;;;;;5025817;28;20040;-67
2022/05/21 01:28:09;;;;;;;17.02;4.68;;;13.00;99.90;;;;;;5026351;28;20037;-67
2022/05/21 01:30:41;;;;;;;12.45;4.15;;;13.00;99.90;;;;;;5020406;28;20572;-67
2022/05/21 01:33:10;;;;;;;11.98;3.95;;;13.00;99.90;;;;;;5018493;28;20033;-66
2022/05/21 01:35:36;;;;;;;12.20;4.07;;;13.00;99.90;;;;;;5027655;28;20982;-67
2022/05/21 01:38:03;;;;;;;13.40;3.55;;;13.00;99.90;;;;;;5026726;28;20033;-70
2022/05/21 01:40:29;;;;;;;16.92;4.82;;;13.00;99.90;;;;;;5026906;28;20121;-66
2022/05/21 01:45:38;;;;;;;11.40;4.18;;;13.10;99.90;;;;;;5020354;28;20096;-69
2022/05/21 01:48:05;;;;;;;12.20;3.63;;;13.10;99.90;;;;;;5026728;28;20045;-67
2022/05/21 01:50:32;;;;;;;11.40;3.60;;;13.10;99.90;;;;;;5026812;28;20034;-66
2022/05/21 01:52:57;;;;;;;13.85;4.38;;;13.10;99.90;;;;;;5026585;28;20136;-71
2022/05/21 01:55:24;;;;;;;11.10;3.65;;;13.10;99.90;;;;;;5026543;28;20553;-67
2022/05/21 01:57:50;;;;;;;10.18;3.90;;;13.10;99.90;;;;;;5026556;28;20482;-67
2022/05/21 02:00:17;;;;;;;10.57;3.38;;;13.20;99.90;;;;;;5026709;28;20029;-67
2022/05/21 02:02:43;;;;;;;12.40;3.72;;;13.10;99.90;;;;;;5026922;28;20457;-68
2022/05/21 02:05:09;;;;;;;13.15;3.38;;;13.20;99.90;;;;;;5022191;28;20093;-67
2022/05/21 02:07:35;;;;;;;6.78;3.15;;;13.20;99.90;;;;;;5018185;28;20482;-68
2022/05/21 02:10:01;;;;;;;11.73;3.47;;;13.20;99.90;;;;;;5018958;28;20033;-66
2022/05/21 02:12:27;;;;;;;16.20;3.35;;;13.20;99.90;;;;;;5026438;28;20030;-67
2022/05/21 02:14:56;;;;;;;10.18;2.88;;;13.20;99.90;;;;;;5027128;28;20045;-67
2022/05/21 02:17:22;;;;;;;13.02;2.88;;;13.20;99.90;;;;;;5026229;28;20048;-69
2022/05/21 02:19:48;;;;;;;10.02;2.08;;;13.20;99.90;;;;;;5027612;28;20512;-66
2022/05/21 02:22:15;;;;;;;14.75;3.15;;;13.20;99.90;;;;;;5030395;28;20033;-67
2022/05/21 02:24:41;;;;;;;11.98;2.00;;;13.20;99.90;;;;;;5029017;28;20514;-67
2022/05/21 02:27:11;;;;;;;16.58;2.40;;;13.20;99.90;;;;;;5030317;28;20054;-67
2022/05/21 02:29:37;;;;;;;20.05;2.78;;;13.20;99.90;;;;;;5029267;28;20447;-67
2022/05/21 02:32:04;;;;;;;16.90;2.22;;;13.20;99.90;;;;;;5030132;28;20082;-66
2022/05/21 02:34:30;;;;;;;11.23;1.63;;;13.20;99.90;;;;;;5029935;28;20102;-67
2022/05/21 02:39:40;;;;;;;20.33;2.92;;;13.20;99.90;;;;;;5025350;28;20451;-68
2022/05/21 02:42:43;;;;;;;11.75;2.13;;;13.20;99.90;;;;;;5029873;28;20033;-67
2022/05/21 02:44:52;;;;;;;23.05;2.55;;;13.30;99.90;;;;;;5030209;28;20037;-66
2022/05/21 02:47:18;;;;;;;9.82;1.92;;;13.30;99.90;;;;;;5027911;28;20549;-66
2022/05/21 02:49:44;;;;;;;12.57;2.90;;;13.30;99.90;;;;;;5030173;28;20195;-66
2022/05/21 02:52:09;;;;;;;17.88;2.60;;;13.30;99.90;;;;;;5030114;28;20029;-69
2022/05/21 02:54:35;;;;;;;11.18;2.40;;;13.20;99.90;;;;;;5029632;28;20091;-67
2022/05/21 02:57:00;;;;;;;8.65;1.60;;;13.20;99.90;;;;;;5030116;28;20044;-66
2022/05/21 02:59:29;;;;;;;19.90;2.08;;;13.10;99.90;;;;;;5029910;28;20132;-67
2022/05/21 03:01:54;;;;;;;10.27;2.10;;;13.10;99.90;;;;;;5029807;28;20031;-66
2022/05/21 03:04:20;;;;;;;17.08;2.85;;;13.00;99.90;;;;;;5025355;28;20084;-67
2022/05/21 03:06:46;;;;;;;12.57;2.55;;;13.00;99.90;;;;;;5015849;28;20068;-67
2022/05/21 03:11:56;;;;;;;12.05;2.25;;;12.90;99.90;;;;;;5029352;28;20044;-66
2022/05/21 03:14:21;;;;;;;20.83;2.20;;;12.80;99.90;;;;;;5028791;28;20405;-66
2022/05/21 03:16:47;;;;;;;8.75;1.80;;;12.70;99.90;;;;;;5029891;28;20048;-67
2022/05/21 03:19:13;;;;;;;18.88;2.20;;;12.70;99.90;;;;;;5029276;28;20489;-69
2022/05/21 03:21:38;;;;;;;15.65;2.38;;;12.60;99.90;;;;;;5029336;28;20044;-67
2022/05/21 03:24:04;;;;;;;14.55;1.70;;;12.60;99.90;;;;;;5028427;28;20485;-68
2022/05/21 03:26:31;;;;;;;16.58;2.22;;;12.60;99.90;;;;;;5029034;28;20056;-67
2022/05/21 03:28:57;;;;;;;17.27;1.83;;;12.50;99.90;;;;;;5029544;28;20091;-67
2022/05/21 03:31:23;;;;;;;14.65;1.73;;;12.50;99.90;;;;;;5027674;28;20029;-66
2022/05/21 03:33:49;;;;;;;11.70;1.77;;;12.50;99.90;;;;;;5028884;28;20044;-66
2022/05/21 03:36:14;;;;;;;10.80;1.88;;;12.40;99.90;;;;;;5029576;28;20037;-67
2022/05/21 03:38:40;;;;;;;10.77;2.17;;;12.50;99.90;;;;;;5029084;28;20036;-68
2022/05/21 03:41:06;;;;;;;17.75;2.85;;;12.40;99.90;;;;;;5029050;28;20033;-66
2022/05/21 03:43:31;;;;;;;12.98;2.50;;;12.40;99.90;;;;;;5027859;28;20034;-68
2022/05/21 03:45:57;;;;;;;14.98;2.03;;;12.30;99.90;;;;;;5029791;28;20378;-66
2022/05/21 03:48:22;;;;;;;12.48;2.28;;;12.30;99.90;;;;;;5028964;28;20616;-66
2022/05/21 03:50:48;;;;;;;12.27;1.48;;;12.30;99.90;;;;;;5029200;28;20038;-66
2022/05/21 03:53:16;;;;;;;11.68;2.00;;;12.30;99.90;;;;;;5026921;28;20508;-66
2022/05/21 03:55:42;;;;;;;9.43;1.70;;;12.30;99.90;;;;;;5028573;28;20049;-70
2022/05/21 03:58:07;;;;;;;12.13;1.90;;;12.20;99.90;;;;;;5027175;28;20041;-67
2022/05/21 04:00:33;;;;;;;15.57;1.67;;;12.30;99.90;;;;;;5028721;28;20037;-66
2022/05/21 04:02:59;;;;;;;17.10;2.38;;;12.30;99.90;;;;;;5026864;28;20029;-66
2022/05/21 04:05:25;;;;;;;12.75;2.08;;;12.30;99.90;;;;;;5017604;28;20042;-66
2022/05/21 04:07:51;;;;;;;12.15;1.90;;;12.20;99.90;;;;;;5023498;28;20068;-66
2022/05/21 04:10:18;;;;;;;10.77;2.15;;;12.20;99.90;;;;;;5028497;28;20061;-67
2022/05/21 04:12:43;;;;;;;9.20;2.58;;;12.20;99.90;;;;;;5027900;28;20041;-66
2022/05/21 04:15:11;;;;;;;15.52;2.53;;;12.20;99.90;;;;;;5028794;28;20043;-70
2022/05/21 04:17:37;;;;;;;22.48;3.28;;;12.20;99.90;;;;;;5028201;28;20040;-66
2022/05/21 04:20:06;;;;;;;13.98;2.05;;;12.20;99.90;;;;;;5028432;28;20117;-66
2022/05/21 04:22:32;;;;;;;12.68;1.73;;;12.30;99.90;;;;;;5027712;28;20029;-66
2022/05/21 04:24:57;;;;;;;17.88;2.70;;;12.20;99.90;;;;;;5026470;28;20046;-67
2022/05/21 04:27:23;;;;;;;14.05;2.17;;;12.30;99.90;;;;;;5028201;28;20042;-66
2022/05/21 04:29:48;;;;;;;10.38;1.20;;;12.30;99.90;;;;;;5028574;28;20096;-67
2022/05/21 04:32:14;;;;;;;10.05;1.13;;;12.30;99.90;;;;;;5027729;28;20072;-66
2022/05/21 04:34:40;;;;;;;14.50;2.13;;;12.30;99.90;;;;;;5015781;28;20121;-70
2022/05/21 04:37:05;;;;;;;8.32;1.35;;;12.30;99.90;;;;;;5022762;28;20065;-67
2022/05/21 04:39:31;;;;;;;14.35;1.40;;;12.30;99.90;;;;;;5028262;28;20448;-66
2022/05/21 04:41:58;;;;;;;12.32;1.60;;;12.30;99.90;;;;;;5027416;28;20037;-67
2022/05/21 04:44:25;;;;;;;11.27;2.67;;;12.30;99.90;;;;;;5026062;28;20516;-66
2022/05/21 04:46:51;;;;;;;13.75;1.92;;;12.40;99.90;;;;;;5019897;28;20031;-66
2022/05/21 04:49:16;;;;;;;16.55;1.52;;;12.40;99.90;;;;;;5027800;28;20120;-66
2022/05/21 04:51:42;;;;;;;9.45;2.05;;;12.30;99.90;;;;;;5027105;28;20034;-70
2022/05/21 04:54:07;;;;;;;10.57;1.88;;;12.40;99.90;;;;;;5026700;28;20037;-66
2022/05/21 04:56:34;;;;;;;11.80;2.90;;;12.40;99.90;;;;;;5027663;28;20036;-67
2022/05/21 04:58:59;;;;;;;16.67;2.30;;;12.40;99.90;;;;;;5027178;28;20038;-66
2022/05/21 05:01:25;;;;;;;10.75;1.48;;;12.40;99.90;;;;;;5023259;28;20036;-67
2022/05/21 05:03:50;;;;;;;11.13;1.45;;;12.50;99.90;;;;;;5026727;28;20486;-66
2022/05/21 05:06:16;;;;;;;16.23;1.80;;;12.50;99.90;;;;;;5026283;28;20029;-66
2022/05/21 05:08:41;;;;;;;14.90;1.98;;;12.50;99.90;;;;;;5026167;28;20033;-65
2022/05/21 05:11:07;;;;;;;11.63;1.25;;;12.60;99.90;;;;;;5027303;28;20125;-66
2022/05/21 05:13:32;;;;;;;12.00;1.67;;;12.60;99.90;;;;;;5026800;28;20516;-66
2022/05/21 05:15:58;;;;;;;15.07;2.67;;;12.70;99.90;;;;;;5027203;28;20041;-70
2022/05/21 05:18:27;;;;;;;12.07;1.83;;;12.70;99.90;;;;;;5027365;28;20136;-66
2022/05/21 05:20:53;;;;;;;12.35;1.92;;;12.70;99.90;;;;;;5027858;28;20038;-65
2022/05/21 05:23:19;;;;;;;13.55;1.27;;;12.70;99.90;;;;;;5026270;28;20072;-69
2022/05/21 05:25:44;;;;;;;18.23;1.83;;;12.80;99.90;;;;;;5019705;28;20113;-66
2022/05/21 05:28:16;;;;;;;14.18;1.92;;;12.90;99.90;;;;;;5026718;28;20034;-66
2022/05/21 05:30:42;;;;;;;9.13;1.80;;;12.90;99.90;;;;;;5025467;28;20025;-66
2022/05/21 05:33:07;;;;;;;7.22;1.40;;;13.00;99.90;;;;;;5023124;28;20030;-66
2022/05/21 05:35:33;;;;;;;12.52;1.85;;;13.10;99.90;;;;;;5027028;28;20128;-66
2022/05/21 05:37:58;;;;;;;8.00;1.02;;;13.20;99.90;;;;;;5026992;28;20036;-69
2022/05/21 05:40:24;;;;;;;9.82;1.85;;;13.40;99.90;;;;;;5026196;28;20029;-68
2022/05/21 05:42:50;;;;;;;6.63;1.30;;;13.60;99.90;;;;;;5015670;28;20026;-66
2022/05/21 05:45:16;;;;;;;10.90;1.77;;;14.00;99.90;;;;;;5023073;28;20848;-66
2022/05/21 05:47:42;;;;;;;7.97;1.00;;;14.50;99.90;;;;;;5026929;28;20042;-68
2022/05/21 05:50:09;;;;;;;10.32;1.15;;;14.90;99.90;;;;;;5026635;28;20046;-67
2022/05/21 05:52:35;;;;;;;6.00;1.35;;;15.20;99.90;;;;;;5024429;28;20041;-66
2022/05/21 05:55:00;;;;;;;11.10;1.65;;;15.60;99.90;;;;;;5026453;28;20037;-66
2022/05/21 05:57:26;;;;;;;10.13;1.58;;;16.00;99.90;;;;;;5024924;28;20033;-67
2022/05/21 05:59:52;;;;;;;6.38;1.63;;;16.70;99.90;;;;;;5025737;28;20049;-67
2022/05/21 06:05:11;;;;;;;10.60;2.25;;;18.10;99.90;;;;;;5022874;28;20086;-68
2022/05/21 06:07:45;;;;;;;6.93;2.00;;;18.50;99.90;;;;;;5021749;28;20046;-67
2022/05/21 06:10:12;;;;;;;6.28;1.40;;;18.70;99.90;;;;;;5010865;28;20042;-66
2022/05/21 06:12:38;;;;;;;5.95;1.40;;;18.90;99.90;;;;;;5008942;28;20575;-67
2022/05/21 06:15:04;;;;;;;10.90;2.30;;;19.30;99.90;;;;;;5005096;28;20037;-67
2022/05/21 06:17:30;;;;;;;13.38;2.53;;;19.60;99.90;;;;;;5006672;28;20091;-68
2022/05/21 06:19:56;;;;;;;4.45;1.15;;;19.90;99.90;;;;;;5006278;28;20121;-67
2022/05/21 06:22:21;;;;;;;5.25;1.63;;;20.40;99.90;;;;;;5022786;28;20044;-70
2022/05/21 06:24:47;;;;;;;10.30;1.77;;;20.80;99.90;;;;;;5022214;28;20053;-67
2022/05/21 06:27:13;;;;;;;8.75;1.63;;;21.10;99.90;;;;;;5026008;28;20535;-65
2022/05/21 06:29:38;;;;;;;4.22;1.27;;;21.80;99.90;;;;;;5025787;28;20151;-67
2022/05/21 06:32:06;;;;;;;7.00;1.45;;;22.80;99.90;;;;;;5009305;28;20030;-67
2022/05/21 06:34:32;;;;;;;10.38;1.83;;;23.50;99.90;;;;;;5011909;28;20048;-67
2022/05/21 06:37:09;;;;;;;12.35;1.95;;;24.30;99.20;;;;;;5011451;28;20111;-67
2022/05/21 06:39:36;;;;;;;11.70;2.20;;;24.70;99.00;;;;;;5011275;28;20053;-66
2022/05/21 06:42:02;;;;;;;8.73;1.60;;;25.10;97.70;;;;;;5016399;28;20048;-69
2022/05/21 06:44:28;;;;;;;10.15;1.85;;;25.40;97.40;;;;;;5009474;28;20111;-67
2022/05/21 06:46:55;;;;;;;6.68;1.90;;;25.80;97.10;;;;;;5008160;28;20037;-68
2022/05/21 06:49:21;;;;;;;8.85;1.65;;;25.80;94.50;;;;;;5018058;28;20041;-67
2022/05/21 06:51:52;;;;;;;8.35;2.33;;;25.80;94.00;;;;;;5026515;28;20060;-67
2022/05/21 06:54:17;;;;;;;9.00;2.25;;;26.50;93.60;;;;;;5018284;28;20482;-67
2022/05/21 06:56:43;;;;;;;9.25;2.72;;;26.50;92.20;;;;;;5024020;28;20141;-67
2022/05/21 06:59:09;;;;;;;9.60;1.60;;;26.50;91.10;;;;;;5025661;28;20052;-69
2022/05/21 07:01:34;;;;;;;8.50;1.70;;;26.10;91.70;;;;;;5009396;28;20033;-67
2022/05/21 07:04:00;;;;;;;8.88;2.03;;;26.20;88.50;;;;;;5021189;28;20409;-66
2022/05/21 07:09:10;;;;;;;7.88;1.92;;;26.90;90.50;;;;;;5027510;28;20048;-68
2022/05/21 07:11:37;;;;;;;9.60;2.03;;;26.90;88.20;;;;;;5026837;28;20065;-69
2022/05/21 07:14:03;;;;;;;9.38;2.55;;;27.00;85.90;;;;;;5026545;28;20124;-67
2022/05/21 07:16:29;;;;;;;7.43;1.75;;;27.40;85.20;;;;;;5027845;28;20397;-67
2022/05/21 07:18:55;;;;;;;8.50;1.80;;;27.20;84.00;;;;;;5027645;28;20107;-67
2022/05/21 07:21:21;;;;;;;8.23;1.80;;;27.00;83.70;;;;;;5025298;28;20052;-67
2022/05/21 07:23:48;;;;;;;10.90;2.08;;;27.60;84.10;;;;;;5027179;28;20041;-66
2022/05/21 07:26:14;;;;;;;12.00;1.92;;;27.90;82.10;;;;;;5025099;28;20562;-67
2022/05/21 07:28:40;;;;;;;11.07;2.17;;;27.70;83.40;;;;;;5027403;28;20101;-67
2022/05/21 07:31:06;;;;;;;32.47;5.28;;;27.80;81.60;;;;;;5027062;28;20034;-67
2022/05/21 07:33:31;;;;;;;9.95;2.60;;;28.10;81.80;;;;;;5027308;28;20037;-67
2022/05/21 07:35:57;;;;;;;13.20;2.28;;;27.70;81.40;;;;;;5027994;28;20510;-69
2022/05/21 07:38:23;;;;;;;9.20;1.98;;;28.40;81.40;;;;;;5023416;28;20104;-67
2022/05/21 07:40:51;;;;;;;5.68;1.70;;;27.90;81.10;;;;;;5027366;28;20048;-68
2022/05/21 07:43:24;;;;;;;7.15;1.77;;;27.80;79.20;;;;;;5026716;28;20037;-66
2022/05/21 07:45:50;;;;;;;9.18;2.25;;;27.20;79.60;;;;;;5027056;28;20083;-67
2022/05/21 07:48:18;;;;;;;8.18;2.17;;;25.80;83.30;;;;;;5027500;28;20029;-67
2022/05/21 07:50:47;;;;;;;8.02;1.77;;;25.50;83.80;;;;;;5027114;28;20026;-68
2022/05/21 07:53:18;;;;;;;4.93;1.90;;;25.40;85.00;;;;;;5018492;28;20128;-67
2022/05/21 07:55:46;;;;;;;6.80;1.88;;;25.00;84.80;;;;;;5019949;28;20045;-67
2022/05/21 07:58:12;;;;;;;8.43;1.50;;;24.40;86.10;;;;;;5015751;28;20034;-68
2022/05/21 08:00:38;;;;;;;6.22;0.95;;;24.00;86.10;;;;;;5023270;28;20080;-66
2022/05/21 08:03:04;;;;;;;8.82;1.92;;;23.40;87.30;;;;;;5026315;28;20033;-67
2022/05/21 08:05:30;;;;;;;7.85;1.73;;;23.10;90.10;;;;;;5025531;28;20482;-67
2022/05/21 08:07:56;;;;;;;8.80;1.50;;;22.50;90.20;;;;;;5025333;28;20033;-67
2022/05/21 08:10:22;;;;;;;6.55;1.52;;;22.00;90.60;;;;;;5026839;28;20045;-66
2022/05/21 08:12:49;;;;;;;6.78;1.52;;;21.50;92.30;;;;;;5026211;28;20041;-67
2022/05/21 08:15:16;;;;;;;11.10;2.15;;;21.00;94.70;;;;;;5026175;28;20041;-66
2022/05/21 08:17:42;;;;;;;7.78;1.90;;;20.90;93.50;;;;;;5014829;28;20038;-69
2022/05/21 08:20:11;;;;;;;8.35;1.88;;;20.90;96.50;;;;;;5012715;28;20048;-66
2022/05/21 08:28:06;;;;;;;9.73;1.73;;;20.50;94.80;;;;;;5013374;28;20175;-66
2022/05/21 08:30:32;;;;;;;7.47;1.50;;;20.50;95.50;;;;;;5013369;28;20140;-66
2022/05/21 08:33:06;;;;;;;7.28;1.50;;;20.30;95.20;;;;;;5012611;28;20476;-69
2022/05/21 08:35:32;;;;;;;5.03;1.70;;;20.20;96.30;;;;;;5005662;28;20106;-68
2022/05/21 08:37:58;;;;;;;4.60;1.40;;;20.00;97.10;;;;;;5016277;28;20034;-68
2022/05/21 08:40:49;;;;;;;7.55;1.35;;;19.90;96.80;;;;;;5008800;28;20045;-69
2022/05/21 08:43:54;;;;;;;6.40;1.35;;;19.70;96.50;;;;;;5009266;28;20135;-66
2022/05/21 08:46:44;;;;;;;14.88;1.58;;;19.60;97.50;;;;;;5008911;28;20103;-65
2022/05/21 08:49:12;;;;;;;9.10;1.98;;;19.80;98.10;;;;;;5008906;28;20038;-67
2022/05/21 08:51:47;;;;;;;10.60;1.63;;;19.80;97.40;;;;;;5013567;28;20254;-67
2022/05/21 08:54:15;;;;;;;9.05;1.35;;;20.20;97.90;;;;;;5010584;28;20045;-66
2022/05/21 08:56:41;;;;;;;6.28;1.50;;;20.40;97.80;;;;;;5009779;28;20044;-67
2022/05/21 08:59:08;;;;;;;6.55;1.23;;;20.60;98.20;;;;;;5010872;28;20398;-68
2022/05/21 09:01:39;;;;;;;7.00;1.42;;;20.50;97.20;;;;;;5010370;28;20045;-67
2022/05/21 09:04:05;;;;;;;3.97;1.10;;;20.70;97.60;;;;;;5011121;28;20041;-68
2022/05/21 09:06:43;;;;;;;5.85;1.65;;;20.70;97.70;;;;;;5005058;28;20046;-68
2022/05/21 09:09:23;;;;;;;4.57;0.95;;;20.70;97.10;;;;;;5012058;28;20179;-67
2022/05/21 09:12:15;;;;;;;11.10;1.75;;;20.70;97.10;;;;;;5010556;28;20045;-67
2022/05/21 09:14:43;;;;;;;10.50;1.63;;;20.40;97.10;;;;;;5006368;28;20030;-67
2022/05/21 09:17:11;;;;;;;10.63;2.08;;;20.20;97.30;;;;;;5012638;28;20461;-66
2022/05/21 09:19:38;;;;;;;5.07;0.85;;;20.10;97.50;;;;;;5014418;28;20037;-66
2022/05/21 09:22:09;;;;;;;9.23;1.98;;;19.90;96.80;;;;;;5012749;28;20568;-66
2022/05/21 09:24:42;;;;;;;9.23;0.98;;;19.80;97.70;;;;;;5005955;28;20469;-67
2022/05/21 09:27:42;;;;;;;8.95;1.63;;;19.70;97.70;;;;;;5010495;28;20064;-67
2022/05/21 09:30:20;;;;;;;9.82;1.10;;;19.80;99.10;;;;;;5002969;28;20040;-67
2022/05/21 09:32:51;;;;;;;9.00;1.27;;;20.00;98.50;;;;;;5008359;28;20053;-67
2022/05/21 09:35:20;;;;;;;8.05;1.17;;;20.10;98.90;;;;;;5010317;28;20125;-67
2022/05/21 09:37:46;;;;;;;8.60;1.73;;;20.30;98.20;;;;;;5014569;28;20486;-67
2022/05/21 09:40:28;;;;;;;9.98;1.40;;;20.30;96.70;;;;;;5011387;28;20041;-67
2022/05/21 09:45:40;;;;;;;5.28;1.38;;;20.20;98.60;;;;;;5011297;28;20041;-70
2022/05/21 09:48:05;;;;;;;9.80;1.77;;;20.00;98.10;;;;;;5009849;28;20048;-68
2022/05/21 09:50:51;;;;;;;3.65;1.15;;;19.90;98.60;;;;;;5006673;28;20037;-68
2022/05/21 09:53:23;;;;;;;11.45;1.38;;;20.10;97.50;;;;;;5005056;28;20543;-68
2022/05/21 09:56:02;;;;;;;9.00;1.67;;;20.20;97.80;;;;;;5002615;28;20037;-69
2022/05/21 09:58:30;;;;;;;6.85;1.40;;;20.20;96.90;;;;;;5010577;28;20046;-68
2022/05/21 10:00:57;;;;;;;7.20;1.33;;;20.10;97.50;;;;;;5007167;28;20117;-68
2022/05/21 10:03:45;;;;;;;8.95;1.52;;;20.10;97.10;;;;;;5010413;28;20038;-70
2022/05/21 10:06:34;;;;;;;6.55;0.73;;;20.10;97.10;;;;;;5008946;28;20149;-68
2022/05/21 10:12:12;;;;;;;8.60;0.90;;;20.10;98.10;;;;;;5010171;28;20095;-67
2022/05/21 10:15:04;;;;;;;11.90;2.05;;;20.20;97.60;;;;;;5004901;28;20037;-66
2022/05/21 10:17:38;;;;;;;5.05;0.80;;;20.40;96.90;;;;;;4998298;28;20123;-69
2022/05/21 10:20:30;;;;;;;6.40;1.52;;;20.50;97.60;;;;;;5006895;28;20041;-66
2022/05/21 10:23:33;;;;;;;7.15;1.70;;;20.50;97.80;;;;;;5010228;28;20038;-66
2022/05/21 10:26:25;;;;;;;5.32;0.65;;;20.60;95.80;;;;;;5010182;28;20040;-72
2022/05/21 10:28:58;;;;;;;8.50;1.13;;;20.50;95.70;;;;;;5010699;28;20880;-68
2022/05/21 10:31:39;;;;;;;9.60;1.58;;;20.50;96.60;;;;;;5010734;28;20147;-68
2022/05/21 10:34:18;;;;;;;6.47;0.85;;;20.50;97.20;;;;;;5006905;28;20060;-67
2022/05/21 10:37:08;;;;;;;9.45;1.00;;;20.30;97.30;;;;;;5013650;28;20072;-68
2022/05/21 10:40:07;;;;;;;4.57;0.95;;;20.20;96.70;;;;;;5010078;28;20580;-68
2022/05/21 10:43:01;;;;;;;7.13;1.67;;;20.30;97.00;;;;;;5010118;28;20104;-69
2022/05/21 10:45:53;;;;;;;5.82;1.38;;;20.30;96.70;;;;;;5014101;28;20168;-70
2022/05/21 10:48:33;;;;;;;4.70;1.10;;;20.30;97.90;;;;;;5002785;28;20413;-70
2022/05/21 10:51:29;;;;;;;6.07;0.80;;;20.30;97.20;;;;;;5015666;28;20033;-68
2022/05/21 10:54:14;;;;;;;11.48;0.90;;;20.10;96.90;;;;;;5015734;28;20045;-68
2022/05/21 10:56:44;;;;;;;10.85;1.98;;;19.90;98.30;;;;;;5009270;28;20041;-71
2022/05/21 10:59:59;;;;;;;14.13;1.90;;;20.00;98.80;;;;;;5016039;28;20038;-68
2022/05/21 11:02:49;;;;;;;7.00;0.98;;;20.00;98.60;;;;;;5015812;28;20866;-70
2022/05/21 11:05:35;;;;;;;5.30;0.93;;;19.90;98.50;;;;;;5014218;28;20107;-71
2022/05/21 11:08:08;;;;;;;6.97;1.17;;;20.10;98.60;;;;;;5011841;28;20033;-66
2022/05/21 11:10:49;;;;;;;7.65;1.60;;;20.20;97.30;;;;;;5008677;28;20123;-66
2022/05/21 11:13:31;;;;;;;9.05;1.67;;;20.20;97.70;;;;;;5014700;28;20029;-66
2022/05/21 11:16:21;;;;;;;4.93;1.17;;;20.30;98.30;;;;;;5016512;28;20038;-66
2022/05/21 11:19:25;;;;;;;3.95;1.02;;;20.50;99.90;;;;;;4998032;28;20045;-66
2022/05/21 11:21:58;;;;;;;10.73;1.65;;;20.50;98.60;;;;;;5006052;28;20414;-66
2022/05/21 11:24:51;;;;;;;11.23;2.10;;;20.50;97.90;;;;;;5009902;28;20659;-66
2022/05/21 11:28:03;;;;;;;8.25;1.55;;;20.50;98.60;;;;;;5007093;28;20030;-67
2022/05/21 11:30:28;;;;;;;5.93;1.35;;;20.40;98.40;;;;;;4997542;28;20088;-67
2022/05/21 11:38:51;;;;;;;9.38;1.33;;;20.20;99.20;;;;;;5007877;28;20045;-68
2022/05/21 11:41:25;;;;;;;8.57;1.17;;;20.20;99.90;;;;;;5014826;28;20155;-69
2022/05/21 11:44:55;;;;;;;11.27;2.03;;;20.10;98.80;;;;;;5014273;28;20032;-66
2022/05/21 11:46:44;;;;;;;9.68;1.25;;;20.00;99.70;;;;;;5011276;28;20520;-67
2022/05/21 11:49:47;;;;;;;6.43;1.02;;;20.10;99.00;;;;;;5012596;28;20030;-67
2022/05/21 11:52:34;;;;;;;7.57;1.42;;;20.30;99.20;;;;;;5012091;28;20525;-68
2022/05/21 11:55:11;;;;;;;10.35;1.45;;;20.60;98.40;;;;;;5013198;28;20033;-70
2022/05/21 11:57:42;;;;;;;11.68;1.80;;;20.60;97.20;;;;;;5009850;28;20045;-68
2022/05/21 12:00:08;;;;;;;7.47;1.65;;;20.60;97.20;;;;;;5011205;28;20116;-67
2022/05/21 12:02:37;;;;;;;5.18;1.17;;;20.50;97.70;;;;;;5009526;28;20212;-67
2022/05/21 12:05:08;;;;;;;7.35;1.58;;;20.40;98.50;;;;;;5011819;28;20367;-67
2022/05/21 12:07:43;;;;;;;6.43;1.45;;;20.50;98.80;;;;;;5007780;28;20117;-67
2022/05/21 12:10:28;;;;;;;7.72;1.58;;;20.40;97.30;;;;;;5013042;28;20042;-67
2022/05/21 12:13:16;;;;;;;6.13;1.20;;;20.50;97.80;;;;;;5014198;28;20037;-66
2022/05/21 12:15:51;;;;;;;12.73;1.42;;;20.40;97.50;;;;;;5011830;28;20073;-71
2022/05/21 12:18:37;;;;;;;4.20;0.90;;;20.20;97.60;;;;;;5010998;28;20049;-68
2022/05/21 12:21:06;;;;;;;6.40;1.02;;;20.10;98.20;;;;;;5007868;28;20034;-69
2022/05/21 12:23:32;;;;;;;8.23;1.98;;;19.90;98.20;;;;;;5012535;28;20689;-67
2022/05/21 12:25:57;;;;;;;7.50;0.90;;;20.00;98.40;;;;;;5010436;28;20048;-67
2022/05/21 12:28:33;;;;;;;13.20;2.25;;;20.10;98.30;;;;;;5011118;28;20484;-67
2022/05/21 12:31:01;;;;;;;7.65;1.10;;;20.30;98.30;;;;;;5010958;28;20048;-67
2022/05/21 12:33:51;;;;;;;7.65;1.00;;;20.30;97.40;;;;;;5007456;28;20044;-67
2022/05/21 12:36:45;;;;;;;8.20;1.15;;;20.20;97.90;;;;;;5004811;28;20057;-67
2022/05/21 12:39:15;;;;;;;6.88;1.38;;;20.30;97.20;;;;;;5007688;28;20026;-67
2022/05/21 12:41:45;;;;;;;3.67;1.17;;;20.40;97.00;;;;;;5012387;28;20029;-68
2022/05/21 12:44:15;;;;;;;;;;;20.40;97.30;;;;;;5013923;28;20034;-67
2022/05/21 12:46:48;;;;;;;6.85;1.40;;;20.40;96.40;;;;;;5007432;28;19917;-67
2022/05/21 12:49:17;;;;;;;8.98;1.10;;;20.40;96.20;;;;;;5011284;28;20946;-66
2022/05/21 12:51:49;;;;;;;6.53;1.10;;;20.50;96.70;;;;;;5011046;28;20441;-69
2022/05/21 12:54:22;;;;;;;5.07;1.17;;;20.50;96.80;;;;;;5007734;28;20494;-67
2022/05/21 12:56:48;;;;;;;4.93;0.88;;;20.50;97.00;;;;;;5012100;28;20707;-68
2022/05/21 12:59:22;;;;;;;6.30;1.13;;;20.50;96.10;;;;;;5013205;28;20404;-67
2022/05/21 13:02:20;;;;;;;9.65;1.52;;;20.40;97.00;;;;;;5011680;28;20060;-70
2022/05/21 13:04:49;;;;;;;3.67;1.05;;;20.50;97.00;;;;;;5006580;28;20037;-66
2022/05/21 13:07:27;;;;;;;3.17;0.88;;;20.60;96.10;;;;;;5010199;28;20453;-67
2022/05/21 13:09:57;;;;;;;4.07;0.60;;;20.60;95.90;;;;;;5013468;28;20041;-67
2022/05/21 13:12:24;;;;;;;7.93;1.38;;;20.60;97.20;;;;;;5009199;28;20522;-67
2022/05/21 13:14:50;;;;;;;7.53;1.20;;;20.50;97.60;;;;;;5010069;28;20033;-67
2022/05/21 13:17:39;;;;;;;8.82;1.73;;;20.70;96.00;;;;;;5014525;28;20033;-66
2022/05/21 13:20:15;;;;;;;9.23;1.20;;;20.70;96.00;;;;;;5007792;28;20113;-68
2022/05/21 13:22:59;;;;;;;4.30;1.10;;;20.80;96.00;;;;;;5009376;28;20029;-67
2022/05/21 13:25:25;;;;;;;6.72;1.83;;;20.80;96.10;;;;;;5004991;28;20072;-70
2022/05/21 13:27:56;;;;;;;9.68;2.08;;;20.70;96.80;;;;;;5008753;28;20056;-67
2022/05/21 13:30:35;;;;;;;10.73;1.33;;;20.80;96.90;;;;;;5010961;28;20124;-66
2022/05/21 13:33:11;;;;;;;6.28;1.02;;;20.90;95.60;;;;;;5003013;28;20042;-68
2022/05/21 13:35:39;;;;;;;4.97;1.10;;;20.80;94.70;;;;;;5005325;28;20038;-68